Time;durP1;ratioP1;P1;durP2;ratioP2;P2;SDS_P1;SDS_P2;PMS_P1;PMS_P2;Temp;Humidity;BMP_temperature;BMP_pressure;BME280_temperature;BME280_humidity;BME280_pressure;Samples;Min_cycle;Max_cycle;Signal;HPM_P1;HPM_P2
2022/08/27 00:02:17;;;;;;;4.13;1.58;;;18.10;70.70;;;;;;5054669;28;20040;-79
2022/08/27 00:04:43;;;;;;;3.10;1.55;;;18.10;70.60;;;;;;5055034;28;20025;-78
2022/08/27 00:07:10;;;;;;;6.15;2.00;;;18.10;70.40;;;;;;5062959;28;20067;-78
2022/08/27 00:09:36;;;;;;;3.40;1.42;;;18.10;70.60;;;;;;5074907;28;20032;-78
2022/08/27 00:12:11;;;;;;;4.90;1.40;;;18.00;70.80;;;;;;5058400;28;20029;-78
2022/08/27 00:14:37;;;;;;;4.85;1.90;;;18.00;71.00;;;;;;5054790;28;20041;-78
2022/08/27 00:17:05;;;;;;;3.80;1.70;;;18.00;70.90;;;;;;5037104;28;20033;-78
2022/08/27 00:19:32;;;;;;;3.17;1.30;;;18.00;70.90;;;;;;5055087;28;20025;-78
2022/08/27 00:21:57;;;;;;;2.50;1.40;;;17.90;71.10;;;;;;5054815;28;20403;-78
2022/08/27 00:24:23;;;;;;;7.38;1.70;;;17.90;71.40;;;;;;5071664;28;20111;-78
2022/08/27 00:26:52;;;;;;;2.47;1.33;;;17.90;71.40;;;;;;5046334;28;20036;-78
2022/08/27 00:29:18;;;;;;;4.88;1.88;;;17.90;71.10;;;;;;5054744;28;20040;-78
2022/08/27 00:31:44;;;;;;;3.08;1.55;;;17.90;71.20;;;;;;5036816;28;20028;-78
2022/08/27 00:34:10;;;;;;;8.75;1.70;;;17.80;71.40;;;;;;5054789;28;20707;-78
2022/08/27 00:36:36;;;;;;;7.90;1.52;;;17.80;71.60;;;;;;5054633;28;20027;-78
2022/08/27 00:39:02;;;;;;;4.15;1.60;;;17.80;71.30;;;;;;5036810;28;20025;-78
2022/08/27 00:41:28;;;;;;;7.55;1.83;;;17.80;71.40;;;;;;5036753;28;20040;-78
2022/08/27 00:43:57;;;;;;;4.35;1.50;;;17.80;71.40;;;;;;5036776;28;20124;-78
2022/08/27 00:46:26;;;;;;;2.90;1.45;;;17.80;71.50;;;;;;5054035;28;20039;-78
2022/08/27 00:48:55;;;;;;;3.80;1.42;;;17.80;71.70;;;;;;5055207;28;20084;-78
2022/08/27 00:51:23;;;;;;;7.20;1.53;;;17.70;71.70;;;;;;5052420;28;20029;-78
2022/08/27 00:53:50;;;;;;;2.70;1.30;;;17.70;71.70;;;;;;5058382;28;20272;-78
2022/08/27 00:56:20;;;;;;;2.58;1.63;;;17.70;72.00;;;;;;5058327;28;20021;-78
2022/08/27 00:58:50;;;;;;;8.90;2.45;;;17.60;72.10;;;;;;5058284;28;20404;-78
2022/08/27 01:01:20;;;;;;;5.25;1.88;;;17.60;72.20;;;;;;5057765;28;20113;-78
2022/08/27 01:03:48;;;;;;;5.22;1.70;;;17.60;71.90;;;;;;5039893;28;20112;-78
2022/08/27 01:06:15;;;;;;;3.72;1.70;;;17.60;72.10;;;;;;5061111;28;20062;-78
2022/08/27 01:08:47;;;;;;;5.10;1.55;;;17.60;71.70;;;;;;5078191;28;20037;-78
2022/08/27 01:11:13;;;;;;;10.07;2.05;;;17.60;72.00;;;;;;5065528;28;20032;-78
2022/08/27 01:13:38;;;;;;;3.70;2.10;;;17.60;72.00;;;;;;5057793;28;20053;-78
2022/08/27 01:16:07;;;;;;;4.07;1.58;;;17.50;72.30;;;;;;5058165;28;20025;-78
2022/08/27 01:18:36;;;;;;;4.13;1.75;;;17.50;72.20;;;;;;5057765;28;20566;-78
2022/08/27 01:21:02;;;;;;;4.13;1.73;;;17.40;72.20;;;;;;5057491;28;20040;-78
2022/08/27 01:23:46;;;;;;;4.50;1.67;;;17.40;72.30;;;;;;5057516;28;20045;-78
2022/08/27 01:26:14;;;;;;;3.70;1.80;;;17.40;72.30;;;;;;5075878;28;20029;-78
2022/08/27 01:28:41;;;;;;;6.80;1.80;;;17.30;72.60;;;;;;5058782;28;20115;-78
2022/08/27 01:31:09;;;;;;;4.28;1.85;;;17.30;72.70;;;;;;5065785;28;20028;-78
2022/08/27 01:33:35;;;;;;;3.35;1.83;;;17.30;72.20;;;;;;5077693;28;20048;-78
2022/08/27 01:36:01;;;;;;;2.47;1.52;;;17.30;72.50;;;;;;5077632;28;20009;-77
2022/08/27 01:38:28;;;;;;;2.08;1.20;;;17.30;72.50;;;;;;5042587;28;20082;-78
2022/08/27 01:40:54;;;;;;;5.15;1.70;;;17.20;72.80;;;;;;5056978;28;20032;-78
2022/08/27 01:43:20;;;;;;;8.15;1.65;;;17.20;73.00;;;;;;5057413;28;20543;-78
2022/08/27 01:45:48;;;;;;;4.93;1.85;;;17.20;72.60;;;;;;5057232;28;20025;-78
2022/08/27 01:48:15;;;;;;;7.03;1.88;;;17.20;72.70;;;;;;5039382;28;20894;-78
2022/08/27 01:50:42;;;;;;;3.15;1.73;;;17.20;72.40;;;;;;5057323;28;20021;-78
2022/08/27 01:53:14;;;;;;;3.85;1.60;;;17.20;72.50;;;;;;5057235;28;20075;-78
2022/08/27 01:55:41;;;;;;;3.40;1.73;;;17.20;72.50;;;;;;5070447;28;20031;-78
2022/08/27 01:58:07;;;;;;;3.75;2.00;;;17.20;72.50;;;;;;5076970;28;20013;-78
2022/08/27 02:00:37;;;;;;;6.00;1.80;;;17.20;72.60;;;;;;5076153;28;20028;-79
2022/08/27 02:03:03;;;;;;;;;;;17.10;72.60;;;;;;5068170;28;20475;-78
2022/08/27 02:05:29;;;;;;;6.07;1.90;;;17.10;72.70;;;;;;5069642;28;20426;-78
2022/08/27 02:07:55;;;;;;;8.95;1.95;;;17.20;72.90;;;;;;5091603;28;20024;-78
2022/08/27 02:10:32;;;;;;;3.28;1.60;;;17.10;72.80;;;;;;5038987;28;20025;-78
2022/08/27 02:12:57;;;;;;;8.30;2.08;;;17.10;72.90;;;;;;5038035;28;20613;-78
2022/08/27 02:15:24;;;;;;;3.22;2.22;;;17.10;72.70;;;;;;5056874;28;20029;-78
2022/08/27 02:17:51;;;;;;;2.83;1.38;;;17.10;72.60;;;;;;5038837;28;20056;-77
2022/08/27 02:20:16;;;;;;;4.38;1.90;;;17.10;72.70;;;;;;5056600;28;20547;-78
2022/08/27 02:22:43;;;;;;;4.68;1.83;;;17.10;72.50;;;;;;5056915;28;20580;-78
2022/08/27 02:25:12;;;;;;;3.47;2.00;;;17.00;72.80;;;;;;5056733;28;20088;-78
2022/08/27 02:27:38;;;;;;;3.88;1.65;;;16.90;72.80;;;;;;5056567;28;20055;-78
2022/08/27 02:30:05;;;;;;;4.18;2.30;;;16.90;72.80;;;;;;5056580;28;20045;-78
2022/08/27 02:32:31;;;;;;;4.05;1.77;;;16.90;73.10;;;;;;5055810;28;20024;-78
2022/08/27 02:34:57;;;;;;;4.50;2.20;;;16.80;73.10;;;;;;5038501;28;20572;-78
2022/08/27 02:37:23;;;;;;;4.10;1.60;;;16.80;73.30;;;;;;5056279;28;20102;-78
2022/08/27 02:39:48;;;;;;;9.68;2.55;;;16.80;73.20;;;;;;5038409;28;20083;-78
2022/08/27 02:42:14;;;;;;;2.40;1.65;;;16.80;73.30;;;;;;5059076;28;20028;-78
2022/08/27 02:44:40;;;;;;;5.00;2.05;;;16.80;73.40;;;;;;5076258;28;20032;-78
2022/08/27 02:47:05;;;;;;;4.05;2.13;;;16.80;73.30;;;;;;5075697;28;20029;-78
2022/08/27 02:49:31;;;;;;;3.38;2.03;;;16.80;73.30;;;;;;5049385;28;20166;-78
2022/08/27 02:51:57;;;;;;;2.20;1.77;;;16.80;73.50;;;;;;5037612;28;20060;-77
2022/08/27 02:54:24;;;;;;;5.00;1.98;;;16.70;73.50;;;;;;5038224;28;20036;-78
2022/08/27 02:56:51;;;;;;;5.47;2.30;;;16.70;73.80;;;;;;5038117;28;20025;-78
2022/08/27 02:59:17;;;;;;;4.68;2.70;;;16.70;73.70;;;;;;5056106;28;20104;-78
2022/08/27 03:01:43;;;;;;;7.50;2.22;;;16.70;73.80;;;;;;5037671;28;20508;-78
2022/08/27 03:04:08;;;;;;;4.15;1.90;;;16.60;73.40;;;;;;5056006;28;20033;-78
2022/08/27 03:06:34;;;;;;;8.00;1.95;;;16.70;73.70;;;;;;5086072;28;20043;-78
2022/08/27 03:08:59;;;;;;;3.35;2.15;;;16.60;73.60;;;;;;5084307;28;20053;-77
2022/08/27 03:11:25;;;;;;;2.92;1.80;;;16.60;73.80;;;;;;5054989;28;20100;-78
2022/08/27 03:13:51;;;;;;;5.25;2.70;;;16.60;73.80;;;;;;5055602;28;20080;-78
2022/08/27 03:16:17;;;;;;;3.35;2.20;;;16.60;73.70;;;;;;5055757;28;20048;-78
2022/08/27 03:18:43;;;;;;;3.83;2.10;;;16.60;73.70;;;;;;5055561;28;20099;-78
2022/08/27 03:21:20;;;;;;;6.40;2.40;;;16.60;73.60;;;;;;5037676;28;20040;-78
2022/08/27 03:23:47;;;;;;;6.05;2.25;;;16.60;73.50;;;;;;5055625;28;20025;-78
2022/08/27 03:26:13;;;;;;;5.63;1.83;;;16.60;73.60;;;;;;5055559;28;20048;-78
2022/08/27 03:28:38;;;;;;;7.63;2.55;;;16.50;73.70;;;;;;5055534;28;20041;-78
2022/08/27 03:31:08;;;;;;;6.65;2.20;;;16.50;74.00;;;;;;5036658;28;20031;-78
2022/08/27 03:33:36;;;;;;;4.97;2.33;;;16.40;74.20;;;;;;5037360;28;20033;-78
2022/08/27 03:36:03;;;;;;;5.85;2.47;;;16.30;74.60;;;;;;5055360;28;20020;-78
2022/08/27 03:38:29;;;;;;;4.80;2.38;;;16.30;74.50;;;;;;5037540;28;20031;-78
2022/08/27 03:40:55;;;;;;;7.18;2.15;;;16.30;74.70;;;;;;5037305;28;20025;-78
2022/08/27 03:43:22;;;;;;;6.70;2.95;;;16.30;74.80;;;;;;5055441;28;20504;-78
2022/08/27 03:45:49;;;;;;;4.03;2.40;;;16.30;74.80;;;;;;5055162;28;20033;-78
2022/08/27 03:48:15;;;;;;;3.55;2.60;;;16.30;74.70;;;;;;5037645;28;20029;-77
2022/08/27 03:50:45;;;;;;;6.80;2.88;;;16.40;74.60;;;;;;5054790;28;20119;-78
2022/08/27 03:53:11;;;;;;;7.30;2.42;;;16.40;74.50;;;;;;5055179;28;20029;-78
2022/08/27 03:55:37;;;;;;;7.13;3.03;;;16.30;74.40;;;;;;5055068;28;20046;-78
2022/08/27 03:58:03;;;;;;;6.05;2.53;;;16.40;74.30;;;;;;5055105;28;20112;-78
2022/08/27 04:00:29;;;;;;;9.02;2.55;;;16.30;74.40;;;;;;5055208;28;20055;-77
2022/08/27 04:02:55;;;;;;;4.88;2.60;;;16.30;74.50;;;;;;5036884;28;20078;-78
2022/08/27 04:05:21;;;;;;;5.78;2.58;;;16.30;74.50;;;;;;5065300;28;20059;-77
2022/08/27 04:07:47;;;;;;;4.53;2.38;;;16.30;74.30;;;;;;5095143;28;20032;-78
2022/08/27 04:10:14;;;;;;;4.57;2.47;;;16.30;74.30;;;;;;5084579;28;20031;-78
2022/08/27 04:12:41;;;;;;;5.15;2.35;;;16.30;74.50;;;;;;5037022;28;20053;-78
2022/08/27 04:15:09;;;;;;;11.02;2.50;;;16.30;74.50;;;;;;5054727;28;20124;-78
2022/08/27 04:17:35;;;;;;;6.05;2.67;;;16.30;74.50;;;;;;5036977;28;20021;-78
2022/08/27 04:20:01;;;;;;;4.88;2.92;;;16.20;74.50;;;;;;5054821;28;20028;-78
2022/08/27 04:22:29;;;;;;;6.47;2.70;;;16.20;74.50;;;;;;5053371;28;20025;-78
2022/08/27 04:24:54;;;;;;;6.45;2.90;;;16.20;74.70;;;;;;5039463;28;20029;-78
2022/08/27 04:27:21;;;;;;;6.30;2.67;;;16.20;74.50;;;;;;5058477;28;20028;-78
2022/08/27 04:29:47;;;;;;;4.03;2.55;;;16.10;74.60;;;;;;5058494;28;20029;-78
2022/08/27 04:32:13;;;;;;;5.32;2.47;;;16.10;74.80;;;;;;5058871;28;20052;-78
2022/08/27 04:34:39;;;;;;;8.15;3.55;;;16.10;74.90;;;;;;5058963;28;20036;-78
2022/08/27 04:37:05;;;;;;;3.95;2.85;;;16.10;74.80;;;;;;5058795;28;20013;-78
2022/08/27 04:39:31;;;;;;;5.43;2.60;;;16.00;74.80;;;;;;5058197;28;20032;-78
2022/08/27 04:41:58;;;;;;;5.97;3.50;;;16.00;75.10;;;;;;5058524;28;20420;-78
2022/08/27 04:44:27;;;;;;;7.45;3.22;;;16.00;75.00;;;;;;5040574;28;20029;-79
2022/08/27 04:46:58;;;;;;;6.53;3.25;;;16.00;75.10;;;;;;5057960;28;20052;-78
2022/08/27 04:49:26;;;;;;;4.90;2.65;;;16.00;74.90;;;;;;5078080;28;20513;-78
2022/08/27 04:51:52;;;;;;;6.43;3.45;;;16.00;75.00;;;;;;5078507;28;20029;-78
2022/08/27 04:54:18;;;;;;;6.70;2.95;;;16.00;74.80;;;;;;5078440;28;20156;-78
2022/08/27 04:56:53;;;;;;;8.35;3.08;;;16.00;74.90;;;;;;5059360;28;20063;-78
2022/08/27 04:59:19;;;;;;;7.22;3.10;;;15.90;74.90;;;;;;5060170;28;20029;-78
2022/08/27 05:01:45;;;;;;;7.47;3.25;;;15.80;75.30;;;;;;5060205;28;20039;-78
2022/08/27 05:04:13;;;;;;;8.07;3.05;;;15.90;75.30;;;;;;5064323;28;20452;-78
2022/08/27 05:06:39;;;;;;;5.13;2.72;;;15.90;75.50;;;;;;5086243;28;20031;-78
2022/08/27 05:09:05;;;;;;;8.15;3.25;;;15.80;75.50;;;;;;5058046;28;20029;-78
2022/08/27 05:11:33;;;;;;;5.43;3.80;;;15.90;75.40;;;;;;5067962;28;20025;-78
2022/08/27 05:14:05;;;;;;;6.35;3.30;;;15.90;75.20;;;;;;5076391;28;20040;-78
2022/08/27 05:16:31;;;;;;;7.45;2.97;;;15.90;75.10;;;;;;5071598;28;20017;-78
2022/08/27 05:18:57;;;;;;;8.40;3.00;;;15.90;75.10;;;;;;5058597;28;20036;-87
2022/08/27 05:21:26;;;;;;;7.75;3.42;;;15.90;75.10;;;;;;5060329;28;20032;-84
2022/08/27 05:23:55;;;;;;;9.50;3.20;;;15.90;74.90;;;;;;5066436;28;20378;-83
2022/08/27 05:26:21;;;;;;;8.00;2.97;;;15.90;75.10;;;;;;5062511;28;20035;-87
2022/08/27 05:28:50;;;;;;;4.75;2.67;;;15.80;75.60;;;;;;5055051;28;20071;-89
2022/08/27 05:31:19;;;;;;;5.20;3.13;;;15.80;75.60;;;;;;5039637;28;20032;-82
2022/08/27 05:33:46;;;;;;;5.78;2.65;;;15.80;75.60;;;;;;5057257;28;20021;-82
2022/08/27 05:36:19;;;;;;;7.10;3.35;;;15.80;75.70;;;;;;5065193;28;20399;-82
2022/08/27 05:38:45;;;;;;;12.55;3.50;;;15.80;75.70;;;;;;5059870;28;20032;-81
2022/08/27 05:41:13;;;;;;;9.85;3.28;;;15.80;75.80;;;;;;5059982;28;20016;-82
2022/08/27 05:43:40;;;;;;;9.38;3.60;;;15.70;75.80;;;;;;5049744;28;20059;-82
2022/08/27 05:46:09;;;;;;;7.72;3.88;;;15.80;75.80;;;;;;5057408;28;20384;-81
2022/08/27 05:48:36;;;;;;;7.45;2.90;;;15.70;75.80;;;;;;5057367;28;20051;-81
2022/08/27 05:51:11;;;;;;;6.15;3.35;;;15.70;75.90;;;;;;5057273;28;20044;-81
2022/08/27 05:53:37;;;;;;;11.13;3.90;;;15.70;75.90;;;;;;5057231;28;20021;-80
2022/08/27 05:56:03;;;;;;;8.65;3.47;;;15.70;76.10;;;;;;5039267;28;20377;-82
2022/08/27 06:01:16;;;;;;;9.15;3.25;;;15.70;75.80;;;;;;5059565;28;20083;-84
2022/08/27 06:03:43;;;;;;;7.80;3.30;;;15.80;75.80;;;;;;5065611;28;20044;-87
2022/08/27 06:06:10;;;;;;;6.35;3.50;;;15.80;75.50;;;;;;5066697;28;20027;-84
2022/08/27 06:08:37;;;;;;;8.70;2.97;;;15.80;75.60;;;;;;5094499;28;20032;-84
2022/08/27 06:11:06;;;;;;;8.85;3.20;;;15.80;75.30;;;;;;5080604;28;20037;-84
2022/08/27 06:13:33;;;;;;;7.43;2.72;;;15.80;75.20;;;;;;5063622;28;20049;-84
2022/08/27 06:16:07;;;;;;;8.48;3.03;;;15.90;75.30;;;;;;5074215;28;20101;-85
2022/08/27 06:18:35;;;;;;;6.80;2.75;;;15.90;75.60;;;;;;5043424;28;20167;-85
2022/08/27 06:21:00;;;;;;;9.30;3.35;;;15.90;75.50;;;;;;5056882;28;20385;-81
2022/08/27 06:23:27;;;;;;;5.95;3.08;;;15.90;75.60;;;;;;5056561;28;20047;-82
2022/08/27 06:25:54;;;;;;;7.07;3.30;;;15.90;75.50;;;;;;5039218;28;20025;-83
2022/08/27 06:28:21;;;;;;;4.32;2.60;;;15.80;75.70;;;;;;5056675;28;20029;-79
2022/08/27 06:30:46;;;;;;;7.57;3.50;;;15.90;75.90;;;;;;5056384;28;20033;-84
2022/08/27 06:33:12;;;;;;;8.45;3.35;;;15.90;76.10;;;;;;5056360;28;20025;-82
2022/08/27 06:35:38;;;;;;;10.55;3.63;;;15.90;76.30;;;;;;5038416;28;20056;-82
2022/08/27 06:38:06;;;;;;;6.47;3.10;;;15.90;76.40;;;;;;5038736;28;20017;-87
2022/08/27 06:40:33;;;;;;;6.80;2.92;;;15.90;76.40;;;;;;5058710;28;20021;-84
2022/08/27 06:42:59;;;;;;;5.95;3.00;;;16.00;76.20;;;;;;5064201;28;20039;-80
2022/08/27 06:45:25;;;;;;;5.90;2.67;;;16.00;76.30;;;;;;5064514;28;20036;-83
2022/08/27 06:47:51;;;;;;;5.93;2.88;;;16.00;76.10;;;;;;5046403;28;20035;-83
2022/08/27 06:50:17;;;;;;;6.45;3.47;;;16.10;76.20;;;;;;5061831;28;20454;-85
2022/08/27 06:52:42;;;;;;;5.85;2.75;;;16.20;75.80;;;;;;5075394;28;20027;-88
2022/08/27 06:55:10;;;;;;;6.25;3.42;;;16.30;76.10;;;;;;5057023;28;20462;-84
2022/08/27 06:57:36;;;;;;;9.50;2.80;;;16.20;76.10;;;;;;5047861;28;20025;-84
2022/08/27 07:00:05;;;;;;;8.18;3.55;;;16.30;76.20;;;;;;5072945;28;20029;-86
2022/08/27 07:02:31;;;;;;;6.35;3.05;;;16.30;76.10;;;;;;5041639;28;20047;-81
2022/08/27 07:04:56;;;;;;;6.88;3.47;;;16.40;75.80;;;;;;5056754;28;20029;-79
2022/08/27 07:07:22;;;;;;;7.57;3.50;;;16.50;76.00;;;;;;5039289;28;20056;-81
2022/08/27 07:09:48;;;;;;;11.00;4.18;;;16.50;75.70;;;;;;5056180;28;20112;-81
2022/08/27 07:12:14;;;;;;;10.02;4.18;;;16.60;76.10;;;;;;5039382;28;20032;-83
2022/08/27 07:14:39;;;;;;;6.70;3.70;;;16.60;76.40;;;;;;5051168;28;20183;-81
2022/08/27 07:17:07;;;;;;;7.28;3.47;;;16.60;76.70;;;;;;5073846;28;20025;-81
2022/08/27 07:19:37;;;;;;;11.40;3.88;;;16.70;76.50;;;;;;5058469;28;20020;-85
2022/08/27 07:22:03;;;;;;;8.77;4.07;;;16.80;76.50;;;;;;5049078;28;20048;-83
2022/08/27 07:24:29;;;;;;;12.27;4.10;;;17.10;75.80;;;;;;5056548;28;20037;-83
2022/08/27 07:26:54;;;;;;;6.85;3.70;;;17.40;75.30;;;;;;5072937;28;20080;-83
2022/08/27 07:29:20;;;;;;;10.55;4.10;;;17.70;74.50;;;;;;5067887;28;20036;-83
2022/08/27 07:31:46;;;;;;;11.55;3.67;;;17.80;74.30;;;;;;5053373;28;20033;-84
2022/08/27 07:34:11;;;;;;;12.07;4.68;;;18.00;73.70;;;;;;5063252;28;20036;-83
2022/08/27 07:36:37;;;;;;;9.57;4.30;;;18.10;73.70;;;;;;5056260;28;20051;-84
2022/08/27 07:39:04;;;;;;;11.23;4.70;;;18.20;73.20;;;;;;5057982;28;20031;-84
2022/08/27 07:41:30;;;;;;;16.23;5.22;;;18.30;73.50;;;;;;5075748;28;20671;-85
2022/08/27 07:46:41;;;;;;;15.23;6.45;;;18.40;72.80;;;;;;5068395;28;20364;-83
2022/08/27 07:49:06;;;;;;;11.13;5.28;;;18.40;73.20;;;;;;5049108;28;20052;-82
2022/08/27 07:51:35;;;;;;;11.23;5.13;;;18.50;72.90;;;;;;5059028;28;20475;-81
2022/08/27 07:54:01;;;;;;;11.38;4.80;;;18.70;72.60;;;;;;5072698;28;20401;-83
2022/08/27 07:56:28;;;;;;;10.50;4.70;;;18.60;72.40;;;;;;5052112;28;20029;-83
2022/08/27 07:58:53;;;;;;;13.98;5.28;;;18.80;72.30;;;;;;5053285;28;20078;-83
2022/08/27 08:01:20;;;;;;;9.68;4.97;;;18.80;71.80;;;;;;5062798;28;20029;-81
2022/08/27 08:03:45;;;;;;;15.05;5.55;;;19.00;71.70;;;;;;5058064;28;20400;-83
2022/08/27 08:06:16;;;;;;;13.85;5.47;;;19.30;70.80;;;;;;5078924;28;20040;-85
2022/08/27 08:08:45;;;;;;;14.70;5.72;;;20.60;68.10;;;;;;5072281;28;20046;-84
2022/08/27 08:11:14;;;;;;;13.18;5.00;;;21.80;64.80;;;;;;5036331;28;20027;-85
2022/08/27 08:13:40;;;;;;;10.23;4.30;;;22.60;61.60;;;;;;5036030;28;20129;-84
2022/08/27 08:16:06;;;;;;;10.05;4.40;;;22.40;61.20;;;;;;5054266;28;20025;-85
2022/08/27 08:18:33;;;;;;;13.70;5.32;;;22.10;61.50;;;;;;5036521;28;20037;-87
2022/08/27 08:21:09;;;;;;;15.65;4.82;;;22.40;61.10;;;;;;5053936;28;20090;-81
2022/08/27 08:23:35;;;;;;;8.88;3.58;;;23.40;58.80;;;;;;5066483;28;20040;-81
2022/08/27 08:26:01;;;;;;;8.02;4.47;;;23.90;58.30;;;;;;5066804;28;20025;-84
2022/08/27 08:28:29;;;;;;;8.07;4.25;;;24.00;57.80;;;;;;5063179;28;20033;-84
2022/08/27 08:30:55;;;;;;;15.40;5.40;;;23.80;58.00;;;;;;5055145;28;20048;-84
2022/08/27 08:33:21;;;;;;;14.30;4.93;;;23.40;58.60;;;;;;5038970;28;20044;-84
2022/08/27 08:35:50;;;;;;;12.50;4.93;;;23.00;58.60;;;;;;5078478;28;20035;-84
2022/08/27 08:38:16;;;;;;;10.70;5.00;;;22.70;59.40;;;;;;5057403;28;20025;-84
2022/08/27 08:40:48;;;;;;;11.35;4.50;;;22.60;60.30;;;;;;5074945;28;20262;-84
2022/08/27 08:43:40;;;;;;;13.32;5.10;;;22.60;60.30;;;;;;5075213;28;20052;-84
2022/08/27 08:46:23;;;;;;;15.48;4.95;;;22.50;59.80;;;;;;5038323;28;20508;-84
2022/08/27 08:48:54;;;;;;;11.65;4.78;;;22.60;60.40;;;;;;5054855;28;20022;-84
2022/08/27 08:51:33;;;;;;;12.05;4.90;;;22.50;60.00;;;;;;5054708;28;20412;-84
2022/08/27 08:54:05;;;;;;;12.40;4.97;;;22.30;60.60;;;;;;5036992;28;20031;-84
2022/08/27 08:56:53;;;;;;;9.55;4.93;;;21.80;62.10;;;;;;5054684;28;20029;-83
2022/08/27 08:59:37;;;;;;;12.80;4.68;;;21.60;62.70;;;;;;5036955;28;20021;-86
2022/08/27 09:02:13;;;;;;;13.48;4.47;;;21.40;63.40;;;;;;5036769;28;20033;-86
2022/08/27 09:04:39;;;;;;;12.65;4.57;;;21.50;64.20;;;;;;5036542;28;20439;-85
2022/08/27 09:07:09;;;;;;;12.30;4.93;;;21.50;63.50;;;;;;5071150;28;20040;-82
2022/08/27 09:09:51;;;;;;;9.95;4.78;;;21.60;62.50;;;;;;5054367;28;20032;-85
2022/08/27 09:12:26;;;;;;;11.90;4.30;;;22.00;62.50;;;;;;5077066;28;20032;-81
2022/08/27 09:15:09;;;;;;;13.50;5.15;;;22.50;61.10;;;;;;5045454;28;20060;-84
2022/08/27 09:17:35;;;;;;;9.85;5.22;;;23.40;59.20;;;;;;5048703;28;20469;-82
2022/08/27 09:20:02;;;;;;;12.35;5.72;;;24.50;56.60;;;;;;5047064;28;20039;-81
2022/08/27 09:22:58;;;;;;;14.18;6.90;;;25.60;54.20;;;;;;5064749;28;20073;-81
2022/08/27 09:25:26;;;;;;;7.60;4.35;;;26.80;50.70;;;;;;5066181;28;20786;-84
2022/08/27 09:28:01;;;;;;;12.02;4.68;;;28.00;48.60;;;;;;5046879;28;20043;-83
2022/08/27 09:30:30;;;;;;;7.32;4.22;;;29.10;46.30;;;;;;5066426;28;20523;-83
2022/08/27 09:33:01;;;;;;;9.05;4.00;;;30.20;42.40;;;;;;5045014;28;20051;-77
2022/08/27 09:35:38;;;;;;;7.75;3.72;;;30.90;42.60;;;;;;5045759;28;20032;-80
2022/08/27 09:38:04;;;;;;;7.95;3.70;;;31.60;39.90;;;;;;5049368;28;20036;-80
2022/08/27 09:40:43;;;;;;;7.07;3.50;;;32.10;39.50;;;;;;5046736;28;20036;-82
2022/08/27 09:43:14;;;;;;;8.63;4.45;;;32.80;38.20;;;;;;5057980;28;20066;-80
2022/08/27 09:45:47;;;;;;;8.70;5.03;;;33.00;37.20;;;;;;5063903;28;20434;-82
2022/08/27 09:48:18;;;;;;;7.38;4.45;;;33.30;35.80;;;;;;5069005;28;20036;-84
2022/08/27 09:50:56;;;;;;;5.63;3.08;;;33.70;35.80;;;;;;5056100;28;20492;-81
2022/08/27 09:53:34;;;;;;;13.07;7.30;;;33.90;34.80;;;;;;5038215;28;20037;-81
2022/08/27 09:56:03;;;;;;;7.18;4.13;;;34.20;34.90;;;;;;5056286;28;20037;-82
2022/08/27 09:58:41;;;;;;;9.55;8.10;;;34.20;33.30;;;;;;5054289;28;20028;-81
2022/08/27 10:01:19;;;;;;;8.43;3.95;;;34.20;33.80;;;;;;5064236;28;20053;-83
2022/08/27 10:04:09;;;;;;;6.35;3.38;;;34.00;33.60;;;;;;5055383;28;20075;-81
2022/08/27 10:06:36;;;;;;;7.60;3.40;;;34.20;32.50;;;;;;5074273;28;20051;-82
2022/08/27 10:09:15;;;;;;;5.78;3.15;;;33.90;33.90;;;;;;5061256;28;20024;-84
2022/08/27 10:12:06;;;;;;;6.43;2.75;;;34.00;33.20;;;;;;5056855;28;20560;-82
2022/08/27 10:14:44;;;;;;;5.32;2.80;;;33.80;32.80;;;;;;5048249;28;20044;-81
2022/08/27 10:17:18;;;;;;;5.80;2.78;;;33.70;32.90;;;;;;5056516;28;20037;-80
2022/08/27 10:19:59;;;;;;;5.75;2.95;;;33.50;33.60;;;;;;5050031;28;20025;-82
2022/08/27 10:22:30;;;;;;;4.93;3.08;;;33.00;34.60;;;;;;5075612;28;20112;-82
2022/08/27 10:25:05;;;;;;;5.28;2.42;;;32.80;34.20;;;;;;5089113;28;20495;-82
2022/08/27 10:27:50;;;;;;;5.15;3.05;;;32.00;35.10;;;;;;5062739;28;20039;-82
2022/08/27 10:30:31;;;;;;;5.93;3.33;;;31.00;36.40;;;;;;5064344;28;20492;-82
2022/08/27 10:33:33;;;;;;;7.90;3.00;;;30.10;37.80;;;;;;5074645;28;20571;-82
2022/08/27 10:36:40;;;;;;;4.50;2.53;;;29.20;39.10;;;;;;5072748;28;20027;-82
2022/08/27 10:39:22;;;;;;;4.57;2.47;;;28.60;41.10;;;;;;4998663;28;20049;-82
2022/08/27 10:42:11;;;;;;;4.13;2.30;;;27.90;41.70;;;;;;5012564;28;20113;-81
2022/08/27 10:45:10;;;;;;;4.65;2.10;;;27.50;42.20;;;;;;5043951;28;20572;-81
2022/08/27 10:47:58;;;;;;;3.97;1.90;;;27.30;43.10;;;;;;5074251;28;20031;-82
2022/08/27 10:50:49;;;;;;;4.43;1.95;;;27.20;43.70;;;;;;5036653;28;20041;-82
2022/08/27 10:53:21;;;;;;;3.75;2.30;;;27.10;43.10;;;;;;5042379;28;20060;-81
2022/08/27 10:55:57;;;;;;;3.45;1.95;;;26.90;43.30;;;;;;5061707;28;20037;-81
2022/08/27 10:59:08;;;;;;;4.68;2.10;;;26.80;42.80;;;;;;5051778;28;20029;-87
2022/08/27 11:01:47;;;;;;;3.85;2.15;;;26.70;44.10;;;;;;5032869;28;20123;-82
2022/08/27 11:04:39;;;;;;;3.55;2.15;;;26.70;43.20;;;;;;5054725;28;20370;-82
2022/08/27 11:07:29;;;;;;;5.72;2.30;;;26.70;43.70;;;;;;5043828;28;20036;-83
2022/08/27 11:10:03;;;;;;;5.28;2.00;;;26.60;43.50;;;;;;5047397;28;20035;-85
2022/08/27 11:12:36;;;;;;;5.65;2.70;;;26.50;44.20;;;;;;5051625;28;20028;-84
2022/08/27 11:15:24;;;;;;;4.13;2.20;;;26.50;43.50;;;;;;5047569;28;20068;-88
2022/08/27 11:18:54;;;;;;;3.28;2.08;;;26.50;44.30;;;;;;5066646;28;20035;-86
2022/08/27 11:21:45;;;;;;;10.13;3.22;;;26.50;44.90;;;;;;4954775;28;20057;-86
2022/08/27 11:24:24;;;;;;;8.05;3.20;;;26.50;44.80;;;;;;5066647;28;20525;-89
2022/08/27 11:26:54;;;;;;;3.40;1.85;;;26.50;42.90;;;;;;5041402;28;20032;-88
2022/08/27 11:29:35;;;;;;;5.70;2.05;;;26.50;43.80;;;;;;5054647;28;20029;-83
2022/08/27 11:32:14;;;;;;;3.47;2.03;;;26.50;42.20;;;;;;5036747;28;20029;-88
2022/08/27 11:34:47;;;;;;;3.92;2.33;;;26.30;42.40;;;;;;5056649;28;20062;-87
2022/08/27 11:37:32;;;;;;;5.57;2.08;;;26.30;42.70;;;;;;5066154;28;20056;-85
2022/08/27 11:40:26;;;;;;;3.47;1.73;;;26.30;41.90;;;;;;5037195;28;20036;-86
2022/08/27 11:43:01;;;;;;;2.58;1.48;;;26.40;43.80;;;;;;5050788;28;20074;-87
2022/08/27 11:45:30;;;;;;;4.95;1.45;;;26.40;43.00;;;;;;5074585;28;20514;-87
2022/08/27 11:47:59;;;;;;;3.27;1.70;;;26.40;42.20;;;;;;5044602;28;20078;-89
2022/08/27 11:50:26;;;;;;;4.15;1.60;;;26.40;42.20;;;;;;5075139;28;20467;-90
2022/08/27 11:52:57;;;;;;;3.42;1.98;;;26.50;43.40;;;;;;5071519;28;20428;-87
2022/08/27 11:55:35;;;;;;;5.22;1.83;;;26.60;42.40;;;;;;5076240;28;20016;-90
2022/08/27 11:58:06;;;;;;;4.57;1.90;;;26.50;41.70;;;;;;5075614;28;20456;-90
2022/08/27 12:00:41;;;;;;;4.95;1.67;;;26.50;42.50;;;;;;5045339;28;20017;-85
2022/08/27 12:03:28;;;;;;;2.33;1.50;;;26.50;42.00;;;;;;5040727;28;20590;-92
2022/08/27 12:05:54;;;;;;;4.75;2.20;;;26.50;41.70;;;;;;5057086;28;20033;-85
2022/08/27 12:08:22;;;;;;;3.05;1.67;;;26.50;41.90;;;;;;5075120;28;20024;-83
2022/08/27 12:11:07;;;;;;;4.05;2.00;;;26.50;42.50;;;;;;5049275;28;20388;-91
2022/08/27 12:14:00;;;;;;;2.80;1.60;;;26.60;42.20;;;;;;5050149;28;20040;-95
2022/08/27 12:16:35;;;;;;;4.13;1.55;;;26.60;41.10;;;;;;5062713;28;20025;-90
2022/08/27 12:19:19;;;;;;;2.25;1.30;;;26.70;41.00;;;;;;5047018;28;20699;-90
2022/08/27 12:21:50;;;;;;;3.92;1.52;;;26.60;40.40;;;;;;5041488;28;20101;-90
2022/08/27 12:24:40;;;;;;;3.05;1.15;;;26.70;41.00;;;;;;5036222;28;20025;-89
2022/08/27 12:27:18;;;;;;;3.70;1.80;;;26.70;41.30;;;;;;5042619;28;20032;-89
2022/08/27 12:29:53;;;;;;;3.08;1.30;;;26.70;40.50;;;;;;5050529;28;20021;-91
2022/08/27 12:32:27;;;;;;;3.97;1.38;;;26.80;39.90;;;;;;5061153;28;20491;-90
2022/08/27 12:35:04;;;;;;;2.00;1.38;;;26.80;37.90;;;;;;5042347;28;20552;-92
2022/08/27 12:37:38;;;;;;;2.75;1.15;;;26.80;36.50;;;;;;5046131;28;20063;-90
2022/08/27 12:40:26;;;;;;;2.05;1.20;;;26.80;36.50;;;;;;5056315;28;20018;-90
2022/08/27 12:43:11;;;;;;;2.20;1.13;;;26.80;37.40;;;;;;5043299;28;20042;-90
2022/08/27 12:46:02;;;;;;;2.78;1.20;;;26.90;37.70;;;;;;5061393;28;20029;-92
2022/08/27 12:48:32;;;;;;;2.22;0.90;;;26.90;36.50;;;;;;5052158;28;20052;-91
2022/08/27 12:51:01;;;;;;;1.83;1.48;;;27.00;36.60;;;;;;5059770;28;20425;-90
2022/08/27 12:53:41;;;;;;;1.88;1.08;;;26.90;36.70;;;;;;5046210;28;20028;-88
2022/08/27 12:56:26;;;;;;;;;;;27.00;36.40;;;;;;5044062;28;20068;-89
2022/08/27 12:59:17;;;;;;;3.13;1.20;;;26.90;34.60;;;;;;5041777;28;20256;-92
2022/08/27 13:02:19;;;;;;;2.60;0.85;;;26.90;35.50;;;;;;5043007;28;20035;-89
2022/08/27 13:04:46;;;;;;;3.60;1.02;;;26.90;35.70;;;;;;5073664;28;20036;-90
2022/08/27 13:07:24;;;;;;;3.08;1.55;;;26.90;35.30;;;;;;5049137;28;20101;-91
2022/08/27 13:09:50;;;;;;;4.25;1.15;;;26.90;36.50;;;;;;5049810;28;20036;-91
2022/08/27 13:12:17;;;;;;;1.95;0.95;;;26.90;37.40;;;;;;5058119;28;20029;-91